sensor_id;sensor_type;location;lat;lon;timestamp;temperature;humidity
21425;DHT22;10873;51.132;16.848;2024-01-30T00:00:13;22.10;43.10
21425;DHT22;10873;51.132;16.848;2024-01-30T00:02:59;22.10;42.40
21425;DHT22;10873;51.132;16.848;2024-01-30T00:05:32;22.10;42.20
21425;DHT22;10873;51.132;16.848;2024-01-30T00:07:58;22.10;42.20
21425;DHT22;10873;51.132;16.848;2024-01-30T00:10:24;22.10;42.20
21425;DHT22;10873;51.132;16.848;2024-01-30T00:12:52;22.10;42.10
21425;DHT22;10873;51.132;16.848;2024-01-30T00:15:20;22.10;42.10
21425;DHT22;10873;51.132;16.848;2024-01-30T00:17:45;22.10;42.20
21425;DHT22;10873;51.132;16.848;2024-01-30T00:20:12;22.10;42.20
21425;DHT22;10873;51.132;16.848;2024-01-30T00:22:41;22.00;42.20
21425;DHT22;10873;51.132;16.848;2024-01-30T00:25:08;22.10;42.20
21425;DHT22;10873;51.132;16.848;2024-01-30T00:27:34;22.10;42.30
21425;DHT22;10873;51.132;16.848;2024-01-30T00:30:07;22.10;42.30
21425;DHT22;10873;51.132;16.848;2024-01-30T00:32:33;22.10;42.20
21425;DHT22;10873;51.132;16.848;2024-01-30T00:35:00;22.10;42.10
21425;DHT22;10873;51.132;16.848;2024-01-30T00:37:28;22.10;42.00
21425;DHT22;10873;51.132;16.848;2024-01-30T00:39:54;22.10;42.00
21425;DHT22;10873;51.132;16.848;2024-01-30T00:42:20;22.10;42.00
21425;DHT22;10873;51.132;16.848;2024-01-30T00:44:47;22.10;42.00
21425;DHT22;10873;51.132;16.848;2024-01-30T00:47:15;22.10;42.00
21425;DHT22;10873;51.132;16.848;2024-01-30T00:49:41;22.10;42.10
21425;DHT22;10873;51.132;16.848;2024-01-30T00:52:07;22.10;42.10
21425;DHT22;10873;51.132;16.848;2024-01-30T00:54:34;22.10;42.10
21425;DHT22;10873;51.132;16.848;2024-01-30T00:57:00;22.10;42.10
21425;DHT22;10873;51.132;16.848;2024-01-30T00:59:29;22.10;42.10
21425;DHT22;10873;51.132;16.848;2024-01-30T01:01:55;22.20;42.00
21425;DHT22;10873;51.132;16.848;2024-01-30T01:04:26;22.20;41.90
21425;DHT22;10873;51.132;16.848;2024-01-30T01:06:52;22.20;41.90
21425;DHT22;10873;51.132;16.848;2024-01-30T01:09:18;22.20;41.90
21425;DHT22;10873;51.132;16.848;2024-01-30T01:11:44;22.10;41.80
21425;DHT22;10873;51.132;16.848;2024-01-30T01:14:11;22.10;41.90
21425;DHT22;10873;51.132;16.848;2024-01-30T01:16:37;22.10;41.90
21425;DHT22;10873;51.132;16.848;2024-01-30T01:19:03;22.10;42.00
21425;DHT22;10873;51.132;16.848;2024-01-30T01:21:31;22.10;42.00
21425;DHT22;10873;51.132;16.848;2024-01-30T01:23:58;22.20;42.10
21425;DHT22;10873;51.132;16.848;2024-01-30T01:26:24;22.20;42.10
21425;DHT22;10873;51.132;16.848;2024-01-30T01:28:50;22.20;42.00
21425;DHT22;10873;51.132;16.848;2024-01-30T01:31:17;22.20;41.90
21425;DHT22;10873;51.132;16.848;2024-01-30T01:33:43;22.20;41.90
21425;DHT22;10873;51.132;16.848;2024-01-30T01:36:09;22.20;41.80
21425;DHT22;10873;51.132;16.848;2024-01-30T01:38:38;22.20;41.80
21425;DHT22;10873;51.132;16.848;2024-01-30T01:41:04;22.20;41.70
21425;DHT22;10873;51.132;16.848;2024-01-30T01:43:33;22.10;41.70
21425;DHT22;10873;51.132;16.848;2024-01-30T01:45:59;22.10;41.80
21425;DHT22;10873;51.132;16.848;2024-01-30T01:48:26;22.20;41.90
21425;DHT22;10873;51.132;16.848;2024-01-30T01:50:52;22.20;41.90
21425;DHT22;10873;51.132;16.848;2024-01-30T01:53:18;22.20;41.90
21425;DHT22;10873;51.132;16.848;2024-01-30T01:55:46;22.20;41.90
21425;DHT22;10873;51.132;16.848;2024-01-30T01:58:14;22.20;41.90
21425;DHT22;10873;51.132;16.848;2024-01-30T02:00:40;22.20;41.80
21425;DHT22;10873;51.132;16.848;2024-01-30T02:03:10;22.20;41.80
21425;DHT22;10873;51.132;16.848;2024-01-30T02:05:38;22.20;41.70
21425;DHT22;10873;51.132;16.848;2024-01-30T02:08:05;22.20;41.70
21425;DHT22;10873;51.132;16.848;2024-01-30T02:10:32;22.20;41.70
21425;DHT22;10873;51.132;16.848;2024-01-30T02:13:00;22.20;41.70
21425;DHT22;10873;51.132;16.848;2024-01-30T02:15:26;22.20;41.70
21425;DHT22;10873;51.132;16.848;2024-01-30T02:17:52;22.20;41.70
21425;DHT22;10873;51.132;16.848;2024-01-30T02:20:18;22.20;41.70
21425;DHT22;10873;51.132;16.848;2024-01-30T02:22:46;22.20;41.80
21425;DHT22;10873;51.132;16.848;2024-01-30T02:25:12;22.20;41.80
21425;DHT22;10873;51.132;16.848;2024-01-30T02:27:39;22.20;41.70
21425;DHT22;10873;51.132;16.848;2024-01-30T02:30:06;22.30;41.70
21425;DHT22;10873;51.132;16.848;2024-01-30T02:32:33;22.20;41.60
21425;DHT22;10873;51.132;16.848;2024-01-30T02:34:59;22.30;41.60
21425;DHT22;10873;51.132;16.848;2024-01-30T02:37:25;22.30;41.60
21425;DHT22;10873;51.132;16.848;2024-01-30T02:39:53;22.20;41.50
21425;DHT22;10873;51.132;16.848;2024-01-30T02:42:19;22.20;41.50
21425;DHT22;10873;51.132;16.848;2024-01-30T02:44:45;22.30;41.60
21425;DHT22;10873;51.132;16.848;2024-01-30T02:47:11;22.20;41.60
21425;DHT22;10873;51.132;16.848;2024-01-30T02:49:38;22.20;41.60
21425;DHT22;10873;51.132;16.848;2024-01-30T02:52:05;22.30;41.60
21425;DHT22;10873;51.132;16.848;2024-01-30T02:54:32;22.30;41.60
21425;DHT22;10873;51.132;16.848;2024-01-30T02:57:00;22.30;41.50
21425;DHT22;10873;51.132;16.848;2024-01-30T02:59:26;22.30;41.40
21425;DHT22;10873;51.132;16.848;2024-01-30T03:01:52;22.30;41.40
21425;DHT22;10873;51.132;16.848;2024-01-30T03:04:18;22.30;41.30
21425;DHT22;10873;51.132;16.848;2024-01-30T03:06:45;22.30;41.20
21425;DHT22;10873;51.132;16.848;2024-01-30T03:09:12;22.30;41.20
21425;DHT22;10873;51.132;16.848;2024-01-30T03:11:39;22.30;41.20
21425;DHT22;10873;51.132;16.848;2024-01-30T03:14:09;22.30;41.20
21425;DHT22;10873;51.132;16.848;2024-01-30T03:16:37;22.30;41.20
21425;DHT22;10873;51.132;16.848;2024-01-30T03:19:05;22.30;41.20
21425;DHT22;10873;51.132;16.848;2024-01-30T03:21:32;22.30;41.30
21425;DHT22;10873;51.132;16.848;2024-01-30T03:23:58;22.30;41.30
21425;DHT22;10873;51.132;16.848;2024-01-30T03:26:25;22.30;41.30
21425;DHT22;10873;51.132;16.848;2024-01-30T03:28:51;22.30;41.20
21425;DHT22;10873;51.132;16.848;2024-01-30T03:31:19;22.30;41.20
21425;DHT22;10873;51.132;16.848;2024-01-30T03:33:49;22.30;41.20
21425;DHT22;10873;51.132;16.848;2024-01-30T03:36:15;22.30;41.10
21425;DHT22;10873;51.132;16.848;2024-01-30T03:38:42;22.30;41.10
21425;DHT22;10873;51.132;16.848;2024-01-30T03:41:08;22.30;41.00
21425;DHT22;10873;51.132;16.848;2024-01-30T03:43:35;22.30;41.00
21425;DHT22;10873;51.132;16.848;2024-01-30T03:46:02;22.30;41.00
21425;DHT22;10873;51.132;16.848;2024-01-30T03:48:30;22.30;41.00
21425;DHT22;10873;51.132;16.848;2024-01-30T03:51:01;22.30;41.10
21425;DHT22;10873;51.132;16.848;2024-01-30T03:53:27;22.30;41.10
21425;DHT22;10873;51.132;16.848;2024-01-30T03:55:53;22.30;41.10
21425;DHT22;10873;51.132;16.848;2024-01-30T03:58:19;22.30;41.10
21425;DHT22;10873;51.132;16.848;2024-01-30T04:00:46;22.30;41.00
21425;DHT22;10873;51.132;16.848;2024-01-30T04:03:12;22.30;41.00
21425;DHT22;10873;51.132;16.848;2024-01-30T04:05:39;22.30;40.90
21425;DHT22;10873;51.132;16.848;2024-01-30T04:08:06;22.40;40.90
21425;DHT22;10873;51.132;16.848;2024-01-30T04:10:33;22.40;40.90
21425;DHT22;10873;51.132;16.848;2024-01-30T04:13:01;22.30;40.90
21425;DHT22;10873;51.132;16.848;2024-01-30T04:15:27;22.30;40.90
21425;DHT22;10873;51.132;16.848;2024-01-30T04:17:57;22.30;41.50
21425;DHT22;10873;51.132;16.848;2024-01-30T04:20:25;22.30;40.80
21425;DHT22;10873;51.132;16.848;2024-01-30T04:22:53;22.30;40.90
21425;DHT22;10873;51.132;16.848;2024-01-30T04:25:19;22.30;40.90
21425;DHT22;10873;51.132;16.848;2024-01-30T04:27:45;22.30;40.90
21425;DHT22;10873;51.132;16.848;2024-01-30T04:30:11;22.30;41.00
21425;DHT22;10873;51.132;16.848;2024-01-30T04:32:38;22.30;40.90
21425;DHT22;10873;51.132;16.848;2024-01-30T04:35:05;22.30;40.90
21425;DHT22;10873;51.132;16.848;2024-01-30T04:37:32;22.40;40.90
21425;DHT22;10873;51.132;16.848;2024-01-30T04:39:59;22.40;40.90
21425;DHT22;10873;51.132;16.848;2024-01-30T04:42:25;22.40;40.90
21425;DHT22;10873;51.132;16.848;2024-01-30T04:44:53;22.40;40.80
21425;DHT22;10873;51.132;16.848;2024-01-30T04:47:21;22.40;40.80
21425;DHT22;10873;51.132;16.848;2024-01-30T04:49:47;22.40;40.70
21425;DHT22;10873;51.132;16.848;2024-01-30T04:52:13;22.40;40.70
21425;DHT22;10873;51.132;16.848;2024-01-30T04:54:39;22.40;40.70
21425;DHT22;10873;51.132;16.848;2024-01-30T04:57:09;22.40;40.80
21425;DHT22;10873;51.132;16.848;2024-01-30T04:59:40;22.40;40.90
21425;DHT22;10873;51.132;16.848;2024-01-30T05:02:05;22.30;41.10
21425;DHT22;10873;51.132;16.848;2024-01-30T05:04:33;22.40;41.20
21425;DHT22;10873;51.132;16.848;2024-01-30T05:06:59;22.40;41.20
21425;DHT22;10873;51.132;16.848;2024-01-30T05:09:25;22.40;42.50
21425;DHT22;10873;51.132;16.848;2024-01-30T05:11:51;22.40;43.10
21425;DHT22;10873;51.132;16.848;2024-01-30T05:14:19;22.40;43.30
21425;DHT22;10873;51.132;16.848;2024-01-30T05:16:45;22.50;43.50
21425;DHT22;10873;51.132;16.848;2024-01-30T05:19:13;22.50;43.40
21425;DHT22;10873;51.132;16.848;2024-01-30T05:21:40;22.50;43.30
21425;DHT22;10873;51.132;16.848;2024-01-30T05:24:07;22.40;43.10
21425;DHT22;10873;51.132;16.848;2024-01-30T05:26:35;22.40;43.00
21425;DHT22;10873;51.132;16.848;2024-01-30T05:29:01;22.50;43.00
21425;DHT22;10873;51.132;16.848;2024-01-30T05:31:29;22.50;42.80
21425;DHT22;10873;51.132;16.848;2024-01-30T05:33:55;22.50;42.70
21425;DHT22;10873;51.132;16.848;2024-01-30T05:36:21;22.50;42.50
21425;DHT22;10873;51.132;16.848;2024-01-30T05:38:48;22.50;42.50
21425;DHT22;10873;51.132;16.848;2024-01-30T05:41:13;22.50;42.20
21425;DHT22;10873;51.132;16.848;2024-01-30T05:43:40;22.50;42.10
21425;DHT22;10873;51.132;16.848;2024-01-30T05:46:06;22.60;42.10
21425;DHT22;10873;51.132;16.848;2024-01-30T05:48:35;22.50;41.90
21425;DHT22;10873;51.132;16.848;2024-01-30T05:51:02;22.60;41.90
21425;DHT22;10873;51.132;16.848;2024-01-30T05:53:31;22.50;41.70
21425;DHT22;10873;51.132;16.848;2024-01-30T05:55:57;22.50;41.60
21425;DHT22;10873;51.132;16.848;2024-01-30T05:58:24;22.50;41.60
21425;DHT22;10873;51.132;16.848;2024-01-30T06:00:51;22.50;41.50
21425;DHT22;10873;51.132;16.848;2024-01-30T06:03:18;22.50;41.50
21425;DHT22;10873;51.132;16.848;2024-01-30T06:05:55;22.50;41.40
21425;DHT22;10873;51.132;16.848;2024-01-30T06:09:13;22.50;41.40
21425;DHT22;10873;51.132;16.848;2024-01-30T06:11:44;22.50;41.30
21425;DHT22;10873;51.132;16.848;2024-01-30T06:14:20;22.50;41.20
21425;DHT22;10873;51.132;16.848;2024-01-30T06:17:05;22.50;41.20
21425;DHT22;10873;51.132;16.848;2024-01-30T06:20:08;22.60;41.20
21425;DHT22;10873;51.132;16.848;2024-01-30T06:29:20;22.50;41.00
21425;DHT22;10873;51.132;16.848;2024-01-30T06:32:09;22.60;41.00
21425;DHT22;10873;51.132;16.848;2024-01-30T06:35:10;22.50;41.00
21425;DHT22;10873;51.132;16.848;2024-01-30T06:37:58;22.50;41.00
21425;DHT22;10873;51.132;16.848;2024-01-30T06:40:51;22.50;41.10
21425;DHT22;10873;51.132;16.848;2024-01-30T06:43:23;22.50;41.20
21425;DHT22;10873;51.132;16.848;2024-01-30T06:45:57;22.50;41.10
21425;DHT22;10873;51.132;16.848;2024-01-30T06:48:32;22.50;41.10
21425;DHT22;10873;51.132;16.848;2024-01-30T06:51:00;22.50;41.00
21425;DHT22;10873;51.132;16.848;2024-01-30T06:53:26;22.50;41.00
21425;DHT22;10873;51.132;16.848;2024-01-30T06:55:53;22.50;41.00
21425;DHT22;10873;51.132;16.848;2024-01-30T06:58:19;22.50;41.00
21425;DHT22;10873;51.132;16.848;2024-01-30T07:00:46;22.50;41.00
21425;DHT22;10873;51.132;16.848;2024-01-30T07:03:16;22.50;41.00
21425;DHT22;10873;51.132;16.848;2024-01-30T07:05:43;22.40;41.60
21425;DHT22;10873;51.132;16.848;2024-01-30T07:08:12;22.40;40.90
21425;DHT22;10873;51.132;16.848;2024-01-30T07:10:40;22.40;41.00
21425;DHT22;10873;51.132;16.848;2024-01-30T07:13:10;22.40;41.00
21425;DHT22;10873;51.132;16.848;2024-01-30T07:15:39;22.40;41.10
21425;DHT22;10873;51.132;16.848;2024-01-30T07:18:11;22.40;41.10
21425;DHT22;10873;51.132;16.848;2024-01-30T07:20:38;22.40;41.00
21425;DHT22;10873;51.132;16.848;2024-01-30T07:23:12;22.50;41.00
21425;DHT22;10873;51.132;16.848;2024-01-30T07:25:42;22.40;41.00
21425;DHT22;10873;51.132;16.848;2024-01-30T07:28:09;22.40;40.90
21425;DHT22;10873;51.132;16.848;2024-01-30T07:30:38;22.40;41.00
21425;DHT22;10873;51.132;16.848;2024-01-30T07:33:04;22.40;40.90
21425;DHT22;10873;51.132;16.848;2024-01-30T07:35:31;22.50;41.00
21425;DHT22;10873;51.132;16.848;2024-01-30T07:38:02;22.40;41.00
21425;DHT22;10873;51.132;16.848;2024-01-30T07:40:28;22.40;41.20
21425;DHT22;10873;51.132;16.848;2024-01-30T07:42:56;22.40;41.20
21425;DHT22;10873;51.132;16.848;2024-01-30T07:45:22;22.40;41.20
21425;DHT22;10873;51.132;16.848;2024-01-30T07:47:50;22.40;41.40
21425;DHT22;10873;51.132;16.848;2024-01-30T07:50:17;22.40;41.30
21425;DHT22;10873;51.132;16.848;2024-01-30T07:52:43;22.40;41.20
21425;DHT22;10873;51.132;16.848;2024-01-30T07:55:11;22.40;41.30
21425;DHT22;10873;51.132;16.848;2024-01-30T07:57:40;22.40;41.30
21425;DHT22;10873;51.132;16.848;2024-01-30T08:00:06;22.50;41.30
21425;DHT22;10873;51.132;16.848;2024-01-30T08:02:33;22.50;41.40
21425;DHT22;10873;51.132;16.848;2024-01-30T08:04:59;22.50;41.40
21425;DHT22;10873;51.132;16.848;2024-01-30T08:07:27;22.40;41.30
21425;DHT22;10873;51.132;16.848;2024-01-30T08:09:59;22.40;41.40
21425;DHT22;10873;51.132;16.848;2024-01-30T08:12:36;22.40;41.40
21425;DHT22;10873;51.132;16.848;2024-01-30T08:15:08;22.40;41.60
21425;DHT22;10873;51.132;16.848;2024-01-30T08:17:40;22.40;41.70
21425;DHT22;10873;51.132;16.848;2024-01-30T08:20:11;22.40;41.70
21425;DHT22;10873;51.132;16.848;2024-01-30T08:22:45;22.40;41.70
21425;DHT22;10873;51.132;16.848;2024-01-30T08:25:11;22.50;41.80
21425;DHT22;10873;51.132;16.848;2024-01-30T08:27:50;22.50;41.80
21425;DHT22;10873;51.132;16.848;2024-01-30T08:30:26;22.50;41.90
21425;DHT22;10873;51.132;16.848;2024-01-30T08:32:53;22.50;41.90
21425;DHT22;10873;51.132;16.848;2024-01-30T08:35:24;22.50;41.90
21425;DHT22;10873;51.132;16.848;2024-01-30T08:37:56;22.50;42.00
21425;DHT22;10873;51.132;16.848;2024-01-30T08:40:22;22.50;42.00
21425;DHT22;10873;51.132;16.848;2024-01-30T08:42:52;22.50;42.10
21425;DHT22;10873;51.132;16.848;2024-01-30T08:45:18;22.50;42.20
21425;DHT22;10873;51.132;16.848;2024-01-30T08:47:45;22.50;42.40
21425;DHT22;10873;51.132;16.848;2024-01-30T08:50:11;22.50;42.40
21425;DHT22;10873;51.132;16.848;2024-01-30T08:52:37;22.50;42.50
21425;DHT22;10873;51.132;16.848;2024-01-30T08:55:07;22.50;42.50
21425;DHT22;10873;51.132;16.848;2024-01-30T08:57:35;22.50;42.60
21425;DHT22;10873;51.132;16.848;2024-01-30T09:00:03;22.60;42.60
21425;DHT22;10873;51.132;16.848;2024-01-30T09:02:33;22.60;42.60
21425;DHT22;10873;51.132;16.848;2024-01-30T09:05:00;22.60;42.60
21425;DHT22;10873;51.132;16.848;2024-01-30T09:07:31;22.60;42.60
21425;DHT22;10873;51.132;16.848;2024-01-30T09:09:58;22.60;42.70
21425;DHT22;10873;51.132;16.848;2024-01-30T09:12:24;22.60;42.70
21425;DHT22;10873;51.132;16.848;2024-01-30T09:14:51;22.60;42.70
21425;DHT22;10873;51.132;16.848;2024-01-30T09:17:18;22.60;42.70
21425;DHT22;10873;51.132;16.848;2024-01-30T09:19:47;22.60;42.70
21425;DHT22;10873;51.132;16.848;2024-01-30T09:22:40;22.60;42.70
21425;DHT22;10873;51.132;16.848;2024-01-30T09:25:58;22.60;42.90
21425;DHT22;10873;51.132;16.848;2024-01-30T09:29:13;22.60;42.80
21425;DHT22;10873;51.132;16.848;2024-01-30T09:45:50;22.80;42.80
21425;DHT22;10873;51.132;16.848;2024-01-30T09:48:16;22.80;42.80
21425;DHT22;10873;51.132;16.848;2024-01-30T09:50:42;22.80;42.80
21425;DHT22;10873;51.132;16.848;2024-01-30T09:53:09;22.80;42.80
21425;DHT22;10873;51.132;16.848;2024-01-30T09:55:36;22.80;42.80
21425;DHT22;10873;51.132;16.848;2024-01-30T09:58:02;22.80;42.80
21425;DHT22;10873;51.132;16.848;2024-01-30T10:00:28;22.80;42.80
21425;DHT22;10873;51.132;16.848;2024-01-30T10:02:56;22.80;42.80
21425;DHT22;10873;51.132;16.848;2024-01-30T10:05:26;22.80;42.80
21425;DHT22;10873;51.132;16.848;2024-01-30T10:07:53;22.80;42.90
21425;DHT22;10873;51.132;16.848;2024-01-30T10:10:21;22.80;42.90
21425;DHT22;10873;51.132;16.848;2024-01-30T10:12:49;22.80;42.90
21425;DHT22;10873;51.132;16.848;2024-01-30T10:15:15;22.90;42.90
21425;DHT22;10873;51.132;16.848;2024-01-30T10:17:41;22.90;42.80
21425;DHT22;10873;51.132;16.848;2024-01-30T10:20:09;22.90;42.70
21425;DHT22;10873;51.132;16.848;2024-01-30T10:22:36;22.90;42.70
21425;DHT22;10873;51.132;16.848;2024-01-30T10:25:01;23.00;42.70
21425;DHT22;10873;51.132;16.848;2024-01-30T10:27:28;23.00;42.60
21425;DHT22;10873;51.132;16.848;2024-01-30T10:29:55;23.00;42.60
21425;DHT22;10873;51.132;16.848;2024-01-30T10:32:21;23.00;42.50
21425;DHT22;10873;51.132;16.848;2024-01-30T10:34:47;23.00;42.30
21425;DHT22;10873;51.132;16.848;2024-01-30T10:37:15;23.00;42.30
21425;DHT22;10873;51.132;16.848;2024-01-30T10:39:43;23.10;42.30
21425;DHT22;10873;51.132;16.848;2024-01-30T10:42:12;23.10;42.30
21425;DHT22;10873;51.132;16.848;2024-01-30T10:44:45;23.10;42.20
21425;DHT22;10873;51.132;16.848;2024-01-30T10:47:20;23.10;42.20
21425;DHT22;10873;51.132;16.848;2024-01-30T10:49:48;23.10;42.20
21425;DHT22;10873;51.132;16.848;2024-01-30T10:52:16;23.10;42.10
21425;DHT22;10873;51.132;16.848;2024-01-30T10:54:44;23.10;42.10
21425;DHT22;10873;51.132;16.848;2024-01-30T10:57:11;23.10;42.00
21425;DHT22;10873;51.132;16.848;2024-01-30T10:59:38;23.10;42.00
21425;DHT22;10873;51.132;16.848;2024-01-30T11:02:05;23.10;41.90
21425;DHT22;10873;51.132;16.848;2024-01-30T11:04:36;23.10;41.90
21425;DHT22;10873;51.132;16.848;2024-01-30T11:07:02;23.10;41.80
21425;DHT22;10873;51.132;16.848;2024-01-30T11:09:36;23.20;41.80
21425;DHT22;10873;51.132;16.848;2024-01-30T11:12:03;23.20;41.80
21425;DHT22;10873;51.132;16.848;2024-01-30T11:14:30;23.20;41.80
21425;DHT22;10873;51.132;16.848;2024-01-30T11:16:57;23.20;41.80
21425;DHT22;10873;51.132;16.848;2024-01-30T11:19:24;23.20;41.70
21425;DHT22;10873;51.132;16.848;2024-01-30T11:21:52;23.20;41.70
21425;DHT22;10873;51.132;16.848;2024-01-30T11:24:20;23.20;41.70
21425;DHT22;10873;51.132;16.848;2024-01-30T11:26:49;23.20;41.70
21425;DHT22;10873;51.132;16.848;2024-01-30T11:29:17;23.20;41.70
21425;DHT22;10873;51.132;16.848;2024-01-30T11:31:51;23.20;41.60
21425;DHT22;10873;51.132;16.848;2024-01-30T11:34:18;23.20;41.60
21425;DHT22;10873;51.132;16.848;2024-01-30T11:36:45;23.20;41.60
21425;DHT22;10873;51.132;16.848;2024-01-30T11:39:15;23.20;41.50
21425;DHT22;10873;51.132;16.848;2024-01-30T11:41:44;23.20;41.50
21425;DHT22;10873;51.132;16.848;2024-01-30T11:44:12;23.20;41.50
21425;DHT22;10873;51.132;16.848;2024-01-30T11:46:39;23.20;41.50
21425;DHT22;10873;51.132;16.848;2024-01-30T11:49:04;23.20;41.80
21425;DHT22;10873;51.132;16.848;2024-01-30T11:51:31;23.20;41.40
21425;DHT22;10873;51.132;16.848;2024-01-30T11:53:57;23.20;41.40
21425;DHT22;10873;51.132;16.848;2024-01-30T11:56:24;23.20;41.40
21425;DHT22;10873;51.132;16.848;2024-01-30T11:58:51;23.20;42.10
21425;DHT22;10873;51.132;16.848;2024-01-30T12:01:20;23.20;41.60
21425;DHT22;10873;51.132;16.848;2024-01-30T12:03:49;23.20;41.60
21425;DHT22;10873;51.132;16.848;2024-01-30T12:06:16;23.20;41.70
21425;DHT22;10873;51.132;16.848;2024-01-30T12:08:41;23.20;41.70
21425;DHT22;10873;51.132;16.848;2024-01-30T12:11:08;23.20;41.80
21425;DHT22;10873;51.132;16.848;2024-01-30T12:13:34;23.20;41.90
21425;DHT22;10873;51.132;16.848;2024-01-30T12:16:00;23.20;42.10
21425;DHT22;10873;51.132;16.848;2024-01-30T12:18:28;23.20;42.20
21425;DHT22;10873;51.132;16.848;2024-01-30T12:20:57;23.20;42.20
21425;DHT22;10873;51.132;16.848;2024-01-30T12:23:24;23.20;42.20
21425;DHT22;10873;51.132;16.848;2024-01-30T12:25:52;23.20;42.20
21425;DHT22;10873;51.132;16.848;2024-01-30T12:28:18;23.20;42.30
21425;DHT22;10873;51.132;16.848;2024-01-30T12:30:44;23.20;42.40
21425;DHT22;10873;51.132;16.848;2024-01-30T12:33:16;23.20;42.50
21425;DHT22;10873;51.132;16.848;2024-01-30T12:35:47;23.20;42.60
21425;DHT22;10873;51.132;16.848;2024-01-30T12:38:16;23.20;43.30
21425;DHT22;10873;51.132;16.848;2024-01-30T12:40:42;23.20;42.60
21425;DHT22;10873;51.132;16.848;2024-01-30T12:43:08;23.30;42.60
21425;DHT22;10873;51.132;16.848;2024-01-30T12:45:35;23.30;42.50
21425;DHT22;10873;51.132;16.848;2024-01-30T12:48:01;23.40;42.60
21425;DHT22;10873;51.132;16.848;2024-01-30T12:50:27;23.40;42.60
21425;DHT22;10873;51.132;16.848;2024-01-30T12:52:54;23.40;42.50
21425;DHT22;10873;51.132;16.848;2024-01-30T12:55:21;23.40;42.50
21425;DHT22;10873;51.132;16.848;2024-01-30T12:57:47;23.40;42.40
21425;DHT22;10873;51.132;16.848;2024-01-30T13:00:13;23.40;42.40
21425;DHT22;10873;51.132;16.848;2024-01-30T13:02:39;23.40;42.40
21425;DHT22;10873;51.132;16.848;2024-01-30T13:05:06;23.50;42.50
21425;DHT22;10873;51.132;16.848;2024-01-30T13:07:33;23.50;42.50
21425;DHT22;10873;51.132;16.848;2024-01-30T13:10:01;23.50;42.50
21425;DHT22;10873;51.132;16.848;2024-01-30T13:12:29;23.50;42.60
21425;DHT22;10873;51.132;16.848;2024-01-30T13:14:55;23.50;42.60
21425;DHT22;10873;51.132;16.848;2024-01-30T13:17:21;23.50;42.70
21425;DHT22;10873;51.132;16.848;2024-01-30T13:19:47;23.50;42.80
21425;DHT22;10873;51.132;16.848;2024-01-30T13:22:15;23.50;42.90
21425;DHT22;10873;51.132;16.848;2024-01-30T13:24:41;23.50;42.90
21425;DHT22;10873;51.132;16.848;2024-01-30T13:27:08;23.50;42.90
21425;DHT22;10873;51.132;16.848;2024-01-30T13:29:35;23.50;42.90
21425;DHT22;10873;51.132;16.848;2024-01-30T13:32:00;23.50;42.90
21425;DHT22;10873;51.132;16.848;2024-01-30T13:34:27;23.50;43.00
21425;DHT22;10873;51.132;16.848;2024-01-30T13:36:53;23.50;42.90
21425;DHT22;10873;51.132;16.848;2024-01-30T13:39:20;23.50;42.90
21425;DHT22;10873;51.132;16.848;2024-01-30T13:41:46;23.50;42.90
21425;DHT22;10873;51.132;16.848;2024-01-30T13:44:15;23.50;42.80
21425;DHT22;10873;51.132;16.848;2024-01-30T13:46:43;23.50;42.80
21425;DHT22;10873;51.132;16.848;2024-01-30T13:49:09;23.50;42.90
21425;DHT22;10873;51.132;16.848;2024-01-30T13:51:35;23.50;42.80
21425;DHT22;10873;51.132;16.848;2024-01-30T13:54:01;23.50;42.70
21425;DHT22;10873;51.132;16.848;2024-01-30T13:56:28;23.50;42.70
21425;DHT22;10873;51.132;16.848;2024-01-30T13:58:55;23.50;42.70
21425;DHT22;10873;51.132;16.848;2024-01-30T14:01:23;23.50;42.70
21425;DHT22;10873;51.132;16.848;2024-01-30T14:03:50;23.50;42.60
21425;DHT22;10873;51.132;16.848;2024-01-30T14:06:16;23.50;42.60
21425;DHT22;10873;51.132;16.848;2024-01-30T14:08:42;23.50;42.60
21425;DHT22;10873;51.132;16.848;2024-01-30T14:11:08;23.50;42.60
21425;DHT22;10873;51.132;16.848;2024-01-30T14:13:34;23.50;42.70
21425;DHT22;10873;51.132;16.848;2024-01-30T14:16:00;23.50;42.70
21425;DHT22;10873;51.132;16.848;2024-01-30T14:18:28;23.50;42.60
21425;DHT22;10873;51.132;16.848;2024-01-30T14:20:54;23.50;42.60
21425;DHT22;10873;51.132;16.848;2024-01-30T14:23:20;23.50;42.60
21425;DHT22;10873;51.132;16.848;2024-01-30T14:25:47;23.50;42.70
21425;DHT22;10873;51.132;16.848;2024-01-30T14:28:13;23.50;42.70
21425;DHT22;10873;51.132;16.848;2024-01-30T14:30:39;23.50;42.80
21425;DHT22;10873;51.132;16.848;2024-01-30T14:33:05;23.50;42.80
21425;DHT22;10873;51.132;16.848;2024-01-30T14:35:33;23.50;42.80
21425;DHT22;10873;51.132;16.848;2024-01-30T14:38:00;23.50;42.90
21425;DHT22;10873;51.132;16.848;2024-01-30T14:40:26;23.50;43.00
21425;DHT22;10873;51.132;16.848;2024-01-30T14:42:53;23.50;42.90
21425;DHT22;10873;51.132;16.848;2024-01-30T14:45:20;23.50;43.00
21425;DHT22;10873;51.132;16.848;2024-01-30T14:47:48;23.50;43.00
21425;DHT22;10873;51.132;16.848;2024-01-30T14:50:15;23.50;43.00
21425;DHT22;10873;51.132;16.848;2024-01-30T14:52:44;23.50;42.90
21425;DHT22;10873;51.132;16.848;2024-01-30T14:55:10;23.40;42.80
21425;DHT22;10873;51.132;16.848;2024-01-30T14:57:36;23.50;42.90
21425;DHT22;10873;51.132;16.848;2024-01-30T15:00:04;23.40;42.80
21425;DHT22;10873;51.132;16.848;2024-01-30T15:02:31;23.40;42.80
21425;DHT22;10873;51.132;16.848;2024-01-30T15:04:56;23.40;42.90
21425;DHT22;10873;51.132;16.848;2024-01-30T15:07:23;23.40;42.90
21425;DHT22;10873;51.132;16.848;2024-01-30T15:09:50;23.40;42.90
21425;DHT22;10873;51.132;16.848;2024-01-30T15:12:16;23.40;43.00
21425;DHT22;10873;51.132;16.848;2024-01-30T15:14:42;23.40;42.80
21425;DHT22;10873;51.132;16.848;2024-01-30T15:17:16;23.50;42.90
21425;DHT22;10873;51.132;16.848;2024-01-30T15:19:42;23.50;42.80
21425;DHT22;10873;51.132;16.848;2024-01-30T15:22:08;23.50;42.80
21425;DHT22;10873;51.132;16.848;2024-01-30T15:24:34;23.50;42.70
21425;DHT22;10873;51.132;16.848;2024-01-30T15:27:01;23.50;42.70
21425;DHT22;10873;51.132;16.848;2024-01-30T15:29:28;23.60;42.70
21425;DHT22;10873;51.132;16.848;2024-01-30T15:31:54;23.60;42.60
21425;DHT22;10873;51.132;16.848;2024-01-30T15:34:19;23.60;42.60
21425;DHT22;10873;51.132;16.848;2024-01-30T15:36:46;23.60;42.50
21425;DHT22;10873;51.132;16.848;2024-01-30T15:39:13;23.60;42.50
21425;DHT22;10873;51.132;16.848;2024-01-30T15:41:41;23.60;42.50